Natural Bridge, Virginia
Current Conditions -  °F | °C
As of 3:35 PM on Thursday 20 Nov 2014 (Local Time) from KHSP Reporting Station
Clear Clear  
Wind Chill: 24°   Ceiling: Unl
Heat Index: 35°   Visibility: 10mi
Dew Point: 10°   Wind: 22mph
Humidity: 35%   Direction: 280°W
Pressure: 29.87"   Gusts: 36mph
Location:  37.63°N, 79.54°W
Report Text: KHSP 202035Z AUTO 28019G31KT 10SM CLR 02/M12 A2987 RMK AO2 T00171123
Loading
Personal Weather Stations






























Interactive Weather Map New forecast layout! Learn more

10-Day Weather Forecast

Advertisements
Track Severe Weather on mobile